Time;durP1;ratioP1;P1;durP2;ratioP2;P2;SDS_P1;SDS_P2;PMS_P1;PMS_P2;Temp;Humidity;BMP_temperature;BMP_pressure;BME280_temperature;BME280_humidity;BME280_pressure;Samples;Min_cycle;Max_cycle;Signal;HPM_P1;HPM_P2
2022/09/18 00:02:24;;;;;;;11.13;2.03;;;12.80;99.90;;;;;;5036514;28;20198;-79
2022/09/18 00:04:51;;;;;;;14.53;2.20;;;12.70;99.90;;;;;;5034321;28;20210;-78
2022/09/18 00:07:18;;;;;;;9.97;1.87;;;12.70;99.90;;;;;;5036289;28;20233;-78
2022/09/18 00:09:46;;;;;;;9.50;2.00;;;12.80;99.90;;;;;;5035283;28;20618;-78
2022/09/18 00:12:12;;;;;;;7.67;1.83;;;12.70;99.90;;;;;;5035545;28;20183;-78
2022/09/18 00:14:40;;;;;;;10.50;1.93;;;12.70;99.90;;;;;;5035006;28;20203;-78
2022/09/18 00:17:07;;;;;;;14.13;2.30;;;12.80;99.90;;;;;;5016444;28;20282;-78
2022/09/18 00:19:34;;;;;;;8.07;1.87;;;12.80;99.90;;;;;;5015944;28;20616;-78
2022/09/18 00:22:01;;;;;;;9.40;2.63;;;12.80;99.90;;;;;;5016455;28;20238;-80
2022/09/18 00:24:28;;;;;;;9.50;2.07;;;12.80;99.90;;;;;;5035943;28;20221;-79
2022/09/18 00:26:54;;;;;;;7.73;1.80;;;12.80;99.90;;;;;;5034243;28;20228;-78
2022/09/18 00:29:21;;;;;;;11.07;2.20;;;12.80;99.90;;;;;;5036226;28;20525;-78
2022/09/18 00:31:49;;;;;;;18.60;2.63;;;12.90;99.90;;;;;;5035977;28;20194;-80
2022/09/18 00:34:16;;;;;;;16.50;3.60;;;13.00;99.90;;;;;;5033990;28;20225;-79
2022/09/18 00:36:44;;;;;;;17.73;3.37;;;13.00;99.90;;;;;;5035923;28;20199;-77
2022/09/18 00:39:11;;;;;;;15.73;3.10;;;13.00;99.90;;;;;;5035636;28;20195;-79
2022/09/18 00:41:41;;;;;;;12.20;2.70;;;13.00;99.90;;;;;;5033450;28;20542;-78
2022/09/18 00:44:35;;;;;;;15.33;2.53;;;12.90;99.90;;;;;;5028066;28;20207;-78
2022/09/18 00:47:14;;;;;;;10.17;2.10;;;12.80;99.90;;;;;;5034160;28;20231;-78
2022/09/18 00:49:44;;;;;;;12.47;2.17;;;12.80;99.90;;;;;;5034403;28;20496;-78
2022/09/18 00:52:13;;;;;;;6.47;1.90;;;12.80;99.90;;;;;;5035464;28;20186;-78
2022/09/18 00:54:42;;;;;;;7.20;1.73;;;12.70;99.90;;;;;;5035184;28;20205;-78
2022/09/18 00:57:12;;;;;;;8.37;2.00;;;12.70;99.90;;;;;;5024013;28;20231;-77
2022/09/18 00:59:42;;;;;;;6.37;1.67;;;12.70;99.90;;;;;;5015676;28;20203;-78
2022/09/18 01:02:11;;;;;;;11.30;2.40;;;12.70;99.90;;;;;;5034984;28;20230;-79
2022/09/18 01:04:38;;;;;;;11.77;2.67;;;12.80;99.90;;;;;;5035348;28;20199;-78
2022/09/18 01:07:12;;;;;;;17.03;2.70;;;12.70;99.90;;;;;;5035063;28;20230;-78
2022/09/18 01:09:47;;;;;;;17.67;2.77;;;12.60;99.90;;;;;;5033258;28;20205;-78
2022/09/18 01:12:20;;;;;;;22.77;2.93;;;12.60;99.90;;;;;;5035014;28;20225;-78
2022/09/18 01:14:57;;;;;;;9.17;2.00;;;12.50;99.90;;;;;;5034365;28;20206;-79
2022/09/18 01:17:33;;;;;;;14.83;2.23;;;12.40;99.90;;;;;;5034074;28;20494;-79
2022/09/18 01:20:26;;;;;;;10.50;2.60;;;12.40;99.90;;;;;;5034888;28;20197;-78
2022/09/18 01:23:08;;;;;;;13.37;2.50;;;12.40;99.90;;;;;;5034269;28;20211;-79
2022/09/18 01:25:45;;;;;;;13.07;2.00;;;12.40;99.90;;;;;;5033605;28;20209;-79
2022/09/18 01:28:23;;;;;;;13.73;2.07;;;12.50;99.90;;;;;;5033444;28;20222;-78
2022/09/18 01:30:55;;;;;;;8.37;1.57;;;12.60;99.90;;;;;;5034486;28;20217;-78
2022/09/18 01:33:29;;;;;;;12.27;2.10;;;12.60;99.90;;;;;;5034731;28;20191;-79
2022/09/18 01:36:02;;;;;;;10.17;1.63;;;12.60;99.90;;;;;;5033287;28;20186;-78
2022/09/18 01:38:33;;;;;;;13.80;2.20;;;12.70;99.90;;;;;;5035028;28;20716;-80
2022/09/18 01:41:04;;;;;;;7.60;1.67;;;12.70;99.90;;;;;;5034645;28;20244;-79
2022/09/18 01:43:34;;;;;;;18.03;3.37;;;12.70;99.90;;;;;;5032547;28;20207;-78
2022/09/18 01:46:06;;;;;;;15.73;2.50;;;12.70;99.90;;;;;;5034445;28;20531;-78
2022/09/18 01:48:38;;;;;;;6.83;1.80;;;12.70;99.90;;;;;;5034605;28;20193;-77
2022/09/18 01:51:10;;;;;;;9.23;1.67;;;12.70;99.90;;;;;;5032583;28;20206;-78
2022/09/18 01:53:41;;;;;;;9.57;1.73;;;12.60;99.90;;;;;;5034156;28;20203;-79
2022/09/18 01:56:13;;;;;;;3.20;1.50;;;12.60;99.90;;;;;;5034072;28;20241;-79
2022/09/18 01:58:42;;;;;;;8.37;1.40;;;12.50;99.90;;;;;;5031403;28;20587;-79
2022/09/18 02:01:13;;;;;;;11.60;1.47;;;12.50;99.90;;;;;;5034527;28;20425;-79
2022/09/18 02:03:45;;;;;;;5.27;1.90;;;12.60;99.90;;;;;;5033904;28;20281;-77
2022/09/18 02:06:16;;;;;;;8.27;1.77;;;12.50;99.90;;;;;;5032835;28;20276;-78
2022/09/18 02:08:46;;;;;;;6.20;1.73;;;12.50;99.90;;;;;;5034232;28;20199;-78
2022/09/18 02:11:15;;;;;;;9.13;1.57;;;12.60;99.90;;;;;;5033246;28;20257;-77
2022/09/18 02:13:49;;;;;;;9.13;1.90;;;12.60;99.90;;;;;;5033824;28;20624;-79
2022/09/18 02:16:22;;;;;;;9.27;1.57;;;12.60;99.90;;;;;;5033721;28;20201;-79
2022/09/18 02:18:53;;;;;;;10.60;2.03;;;12.70;99.90;;;;;;5033441;28;20256;-79
2022/09/18 02:21:25;;;;;;;9.17;1.30;;;12.70;99.90;;;;;;5033158;28;20237;-79
2022/09/18 02:23:55;;;;;;;8.73;2.30;;;12.80;99.90;;;;;;5033109;28;20289;-80
2022/09/18 02:26:22;;;;;;;7.33;1.23;;;12.70;99.90;;;;;;5032169;28;20215;-79
2022/09/18 02:28:51;;;;;;;8.77;1.83;;;12.60;99.90;;;;;;5033872;28;20229;-78
2022/09/18 02:31:20;;;;;;;9.93;1.77;;;12.60;99.90;;;;;;5034303;28;20203;-79
2022/09/18 02:33:48;;;;;;;6.17;1.67;;;12.50;99.90;;;;;;5032106;28;20203;-79
2022/09/18 02:36:41;;;;;;;13.73;2.03;;;12.50;99.90;;;;;;5033520;28;20717;-79
2022/09/18 02:39:21;;;;;;;9.03;2.27;;;12.40;99.90;;;;;;5020763;28;20239;-79
2022/09/18 02:41:56;;;;;;;12.70;2.23;;;12.40;99.90;;;;;;5013718;28;20202;-78
2022/09/18 02:44:30;;;;;;;11.07;2.37;;;12.50;99.90;;;;;;5013875;28;20526;-77
2022/09/18 02:47:04;;;;;;;15.87;2.30;;;12.60;99.90;;;;;;5013030;28;20627;-77
2022/09/18 02:49:39;;;;;;;11.17;2.30;;;12.70;99.90;;;;;;5013861;28;20643;-77
2022/09/18 02:52:14;;;;;;;14.50;2.17;;;12.80;99.90;;;;;;5013542;28;20669;-77
2022/09/18 02:54:47;;;;;;;15.87;2.13;;;12.80;99.90;;;;;;5014289;28;20191;-78
2022/09/18 02:57:18;;;;;;;9.83;2.03;;;12.80;99.90;;;;;;5033330;28;20190;-78
2022/09/18 02:59:49;;;;;;;11.93;2.23;;;12.80;99.90;;;;;;5033164;28;20206;-78
2022/09/18 03:02:16;;;;;;;8.57;2.07;;;12.90;99.90;;;;;;5031335;28;20206;-78
2022/09/18 03:04:44;;;;;;;13.67;2.20;;;13.00;99.90;;;;;;5033343;28;20222;-78
2022/09/18 03:07:13;;;;;;;11.37;2.10;;;13.00;99.90;;;;;;5032789;28;20657;-78
2022/09/18 03:09:40;;;;;;;11.83;2.03;;;13.00;99.90;;;;;;5032785;28;20599;-78
2022/09/18 03:12:07;;;;;;;13.57;2.83;;;13.10;99.90;;;;;;5031733;28;20210;-77
2022/09/18 03:14:34;;;;;;;13.90;2.30;;;13.20;99.90;;;;;;5032102;28;20199;-78
2022/09/18 03:17:02;;;;;;;9.30;2.03;;;13.30;99.90;;;;;;5033319;28;20199;-77
2022/09/18 03:19:29;;;;;;;11.53;2.30;;;13.30;99.90;;;;;;5032009;28;20210;-77
2022/09/18 03:21:56;;;;;;;12.40;2.43;;;13.30;99.90;;;;;;5032089;28;20249;-77
2022/09/18 03:24:24;;;;;;;9.87;1.87;;;13.30;99.90;;;;;;5032439;28;20241;-80
2022/09/18 03:26:51;;;;;;;9.07;2.10;;;13.20;99.90;;;;;;5032795;28;20230;-78
2022/09/18 03:29:18;;;;;;;10.30;1.83;;;13.10;99.90;;;;;;5031293;28;20229;-78
2022/09/18 03:31:45;;;;;;;8.73;1.63;;;13.00;99.90;;;;;;5033296;28;20204;-78
2022/09/18 03:34:13;;;;;;;7.80;1.70;;;12.80;99.90;;;;;;5031936;28;20531;-78
2022/09/18 03:36:40;;;;;;;8.77;1.60;;;12.80;99.90;;;;;;5032324;28;20195;-80
2022/09/18 03:39:07;;;;;;;7.67;1.47;;;12.80;99.90;;;;;;5033008;28;20209;-79
2022/09/18 03:41:34;;;;;;;9.03;1.47;;;12.80;99.90;;;;;;5032530;28;20549;-78
2022/09/18 03:44:01;;;;;;;9.83;2.33;;;12.80;99.90;;;;;;5015114;28;20210;-78
2022/09/18 03:46:28;;;;;;;8.77;1.30;;;12.80;99.90;;;;;;5012889;28;20214;-78
2022/09/18 03:48:55;;;;;;;5.27;1.33;;;12.70;99.90;;;;;;5012989;28;20499;-78
2022/09/18 03:51:23;;;;;;;13.33;2.73;;;12.70;99.90;;;;;;5016831;28;20210;-79
2022/09/18 03:53:50;;;;;;;7.73;1.70;;;12.60;99.90;;;;;;5033074;28;20199;-79
2022/09/18 03:56:18;;;;;;;10.43;1.80;;;12.60;99.90;;;;;;5032646;28;20798;-78
2022/09/18 03:58:45;;;;;;;5.97;1.33;;;12.50;99.90;;;;;;5032349;28;20205;-79
2022/09/18 04:01:12;;;;;;;6.03;1.77;;;12.50;99.90;;;;;;5030152;28;20202;-78
2022/09/18 04:03:39;;;;;;;9.23;1.83;;;12.50;99.90;;;;;;5032315;28;20206;-78
2022/09/18 04:06:07;;;;;;;6.20;1.47;;;12.50;99.90;;;;;;5032983;28;20290;-77
2022/09/18 04:08:35;;;;;;;7.37;2.13;;;12.50;99.90;;;;;;5032587;28;20265;-78
2022/09/18 04:11:03;;;;;;;10.97;2.00;;;12.60;99.90;;;;;;5030598;28;20610;-78
2022/09/18 04:13:30;;;;;;;8.70;1.60;;;12.60;99.90;;;;;;5033027;28;20466;-78
2022/09/18 04:15:57;;;;;;;8.57;1.60;;;12.60;99.90;;;;;;5042088;22;20194;-78
2022/09/18 04:18:24;;;;;;;10.80;1.93;;;12.70;99.90;;;;;;5046583;28;20199;-78
2022/09/18 04:20:51;;;;;;;9.20;1.73;;;12.70;99.90;;;;;;5032617;28;20195;-78
2022/09/18 04:23:17;;;;;;;6.67;1.50;;;12.70;99.90;;;;;;5036377;28;20210;-78
2022/09/18 04:25:46;;;;;;;11.60;1.83;;;12.70;99.90;;;;;;5035104;28;20197;-78
2022/09/18 04:28:13;;;;;;;7.07;2.10;;;12.60;99.90;;;;;;5035717;28;20313;-78
2022/09/18 04:30:39;;;;;;;10.13;1.77;;;12.70;99.90;;;;;;5035771;28;20195;-78
2022/09/18 04:33:07;;;;;;;9.10;1.97;;;12.70;99.90;;;;;;5035088;28;20210;-77
2022/09/18 04:35:34;;;;;;;11.00;2.00;;;12.80;99.90;;;;;;5035917;28;20217;-77
2022/09/18 04:38:01;;;;;;;5.43;1.43;;;12.80;99.90;;;;;;5035419;28;20234;-77
2022/09/18 04:40:27;;;;;;;9.97;1.80;;;12.90;99.90;;;;;;5035030;28;20209;-77
2022/09/18 04:42:56;;;;;;;8.20;1.70;;;13.00;99.90;;;;;;5035693;28;20315;-78
2022/09/18 04:45:22;;;;;;;8.80;1.90;;;13.00;99.90;;;;;;5035539;28;20207;-77
2022/09/18 04:47:49;;;;;;;8.37;1.40;;;13.10;99.90;;;;;;5035012;28;20218;-77
2022/09/18 04:50:16;;;;;;;9.40;1.50;;;13.20;99.90;;;;;;5035197;28;20619;-76
2022/09/18 04:52:44;;;;;;;6.30;1.23;;;13.20;99.90;;;;;;5034704;28;20281;-77
2022/09/18 04:55:11;;;;;;;5.50;1.20;;;13.30;99.90;;;;;;5035430;28;20767;-78
2022/09/18 04:57:38;;;;;;;4.60;1.40;;;13.30;99.90;;;;;;5035348;28;20499;-77
2022/09/18 05:00:08;;;;;;;6.23;1.37;;;13.40;99.90;;;;;;5034708;28;20226;-77
2022/09/18 05:02:35;;;;;;;6.33;1.13;;;13.40;99.90;;;;;;5035670;28;20197;-77
2022/09/18 05:05:01;;;;;;;3.87;1.57;;;13.40;99.90;;;;;;5035111;28;20501;-78
2022/09/18 05:07:30;;;;;;;5.27;1.20;;;13.40;99.90;;;;;;5034395;28;20250;-78
2022/09/18 05:09:57;;;;;;;7.47;1.47;;;13.40;99.90;;;;;;5034857;28;20281;-78
2022/09/18 05:12:24;;;;;;;10.70;1.47;;;13.50;99.90;;;;;;5034879;28;20217;-78
2022/09/18 05:14:51;;;;;;;9.17;1.43;;;13.50;99.90;;;;;;5034775;28;20198;-78
2022/09/18 05:17:19;;;;;;;8.93;1.93;;;13.60;99.90;;;;;;5034477;28;20589;-78
2022/09/18 05:19:46;;;;;;;9.57;1.47;;;13.60;99.90;;;;;;5035063;28;20252;-77
2022/09/18 05:22:13;;;;;;;4.23;1.00;;;13.60;99.90;;;;;;5034161;28;20252;-77
2022/09/18 05:24:40;;;;;;;3.00;0.90;;;13.60;99.90;;;;;;5035056;28;20264;-77
2022/09/18 05:27:08;;;;;;;5.87;1.00;;;13.50;99.90;;;;;;5034130;28;20630;-77
2022/09/18 05:29:36;;;;;;;3.60;0.90;;;13.50;99.90;;;;;;5034229;28;20229;-77
2022/09/18 05:32:03;;;;;;;3.90;0.90;;;13.50;99.90;;;;;;5034660;28;20298;-78
2022/09/18 05:34:31;;;;;;;5.07;0.80;;;13.40;99.90;;;;;;5034351;28;20213;-78
2022/09/18 05:36:58;;;;;;;6.80;1.10;;;13.40;99.90;;;;;;5034036;28;20366;-77
2022/09/18 05:39:25;;;;;;;4.77;1.00;;;13.30;99.90;;;;;;5034333;28;20594;-77
2022/09/18 05:41:52;;;;;;;5.37;1.67;;;13.20;99.90;;;;;;5034309;28;20534;-78
2022/09/18 05:44:20;;;;;;;4.83;1.23;;;13.20;99.90;;;;;;5034233;28;20199;-77
2022/09/18 05:46:47;;;;;;;2.77;0.77;;;13.10;99.90;;;;;;5048124;28;20209;-78
2022/09/18 05:49:14;;;;;;;3.73;0.80;;;13.20;99.90;;;;;;5053506;28;20285;-77
2022/09/18 05:51:43;;;;;;;3.73;0.93;;;13.20;99.90;;;;;;5054350;28;20598;-78
2022/09/18 05:54:10;;;;;;;7.07;1.37;;;13.30;99.90;;;;;;5050152;28;20301;-78
2022/09/18 05:56:37;;;;;;;6.03;1.30;;;13.40;99.90;;;;;;5033447;28;20629;-79
2022/09/18 05:59:04;;;;;;;5.17;1.20;;;13.50;99.90;;;;;;5034246;28;20286;-78
2022/09/18 06:01:31;;;;;;;8.17;1.37;;;13.50;99.90;;;;;;5053947;28;20202;-78
2022/09/18 06:03:58;;;;;;;8.63;1.60;;;13.40;99.90;;;;;;5052839;28;20192;-78
2022/09/18 06:06:27;;;;;;;10.80;2.20;;;13.40;99.90;;;;;;5034774;28;20642;-79
2022/09/18 06:08:56;;;;;;;6.57;1.20;;;13.30;99.90;;;;;;5034181;28;20222;-78
2022/09/18 06:11:22;;;;;;;3.40;0.87;;;13.30;99.90;;;;;;5033452;28;20282;-77
2022/09/18 06:13:51;;;;;;;3.50;0.90;;;13.30;99.90;;;;;;5034032;28;20217;-77
2022/09/18 06:16:18;;;;;;;2.40;1.07;;;13.20;99.90;;;;;;5041962;28;20311;-78
2022/09/18 06:18:45;;;;;;;6.70;0.80;;;13.30;99.90;;;;;;5053299;28;20201;-78
2022/09/18 06:21:13;;;;;;;5.87;0.83;;;13.40;99.90;;;;;;5053415;28;20602;-77
2022/09/18 06:23:41;;;;;;;6.57;1.40;;;13.40;99.90;;;;;;5034396;28;20610;-77
2022/09/18 06:26:10;;;;;;;6.63;0.80;;;13.40;99.90;;;;;;5033095;28;20277;-77
2022/09/18 06:28:37;;;;;;;7.60;1.63;;;13.50;99.90;;;;;;5033527;28;20222;-78
2022/09/18 06:31:05;;;;;;;5.80;1.30;;;13.50;99.90;;;;;;5033186;28;20203;-79
2022/09/18 06:33:32;;;;;;;3.63;1.27;;;13.40;99.90;;;;;;5033078;28;20546;-77
2022/09/18 06:35:59;;;;;;;5.57;0.73;;;13.40;99.90;;;;;;5033631;28;20288;-78
2022/09/18 06:38:27;;;;;;;2.50;0.70;;;13.30;99.90;;;;;;5032796;28;20273;-79
2022/09/18 06:40:54;;;;;;;3.73;0.87;;;13.30;99.90;;;;;;5033320;28;20240;-79
2022/09/18 06:43:22;;;;;;;9.20;1.60;;;13.20;99.90;;;;;;5033486;28;20508;-78
2022/09/18 06:45:53;;;;;;;3.10;1.07;;;13.20;99.90;;;;;;5032303;28;20273;-78
2022/09/18 06:48:20;;;;;;;7.93;2.07;;;13.20;99.90;;;;;;5033523;28;20242;-78
2022/09/18 06:50:52;;;;;;;11.17;2.13;;;13.30;99.90;;;;;;5033461;28;20198;-79
2022/09/18 06:53:19;;;;;;;9.13;2.07;;;13.40;99.90;;;;;;5032679;28;20218;-78
2022/09/18 06:55:47;;;;;;;8.33;2.07;;;13.30;99.90;;;;;;5033313;28;20222;-78
2022/09/18 06:58:14;;;;;;;6.97;1.30;;;13.30;99.90;;;;;;5033306;28;20221;-78
2022/09/18 07:00:43;;;;;;;4.70;1.47;;;13.30;99.90;;;;;;5032905;28;20217;-77
2022/09/18 07:03:10;;;;;;;9.70;3.07;;;13.30;99.90;;;;;;5032985;28;20224;-77
2022/09/18 07:05:40;;;;;;;5.40;1.37;;;13.30;99.90;;;;;;5033167;28;20190;-77
2022/09/18 07:08:07;;;;;;;9.00;1.73;;;13.30;99.90;;;;;;5032109;28;20214;-77
2022/09/18 07:10:34;;;;;;;8.03;1.33;;;13.30;99.90;;;;;;5033301;28;20218;-78
2022/09/18 07:13:01;;;;;;;7.83;1.40;;;13.30;99.90;;;;;;5048295;28;20596;-78
2022/09/18 07:15:28;;;;;;;4.80;1.03;;;13.20;99.90;;;;;;5032154;28;20205;-78
2022/09/18 07:17:57;;;;;;;4.50;1.40;;;13.20;99.90;;;;;;5032666;28;20522;-78
2022/09/18 07:20:25;;;;;;;7.17;1.53;;;13.20;99.90;;;;;;5032343;28;20626;-78
2022/09/18 07:22:53;;;;;;;13.17;2.00;;;13.20;99.90;;;;;;5032987;28;20198;-78
2022/09/18 07:25:21;;;;;;;14.50;2.60;;;13.30;99.90;;;;;;5033003;28;20501;-77
2022/09/18 07:27:48;;;;;;;8.23;2.43;;;13.30;99.90;;;;;;5031787;28;20249;-77
2022/09/18 07:30:15;;;;;;;11.73;1.97;;;13.30;99.90;;;;;;5033173;28;20503;-78
2022/09/18 07:32:42;;;;;;;6.23;1.80;;;13.30;99.90;;;;;;5033017;28;20221;-78
2022/09/18 07:35:11;;;;;;;6.33;1.40;;;13.20;99.90;;;;;;5032094;28;20635;-78
2022/09/18 07:37:38;;;;;;;7.07;1.43;;;13.20;99.90;;;;;;5033073;28;20199;-77
2022/09/18 07:40:06;;;;;;;8.83;1.40;;;13.20;99.90;;;;;;5033019;28;20220;-78
2022/09/18 07:42:34;;;;;;;11.17;2.30;;;13.30;99.90;;;;;;5031901;28;20207;-78
2022/09/18 07:45:00;;;;;;;9.57;1.50;;;13.30;99.90;;;;;;5032702;28;20203;-77
2022/09/18 07:47:27;;;;;;;7.00;1.50;;;13.40;99.90;;;;;;5032622;28;20289;-77
2022/09/18 07:49:54;;;;;;;10.10;1.90;;;13.50;99.90;;;;;;5032201;28;20191;-78
2022/09/18 07:52:23;;;;;;;6.23;1.63;;;13.60;99.90;;;;;;5032663;28;20205;-78
2022/09/18 07:54:50;;;;;;;10.43;1.70;;;13.70;99.90;;;;;;5032917;28;20210;-75
2022/09/18 07:57:17;;;;;;;6.27;1.27;;;13.70;99.90;;;;;;5034412;28;20515;-76
2022/09/18 07:59:43;;;;;;;6.63;1.17;;;13.70;99.90;;;;;;5036098;28;20198;-77
2022/09/18 08:02:11;;;;;;;5.70;1.40;;;13.80;99.90;;;;;;5036779;28;20206;-77
2022/09/18 08:04:38;;;;;;;11.33;1.67;;;13.80;99.90;;;;;;5035687;28;20202;-77
2022/09/18 08:07:05;;;;;;;13.33;2.67;;;13.80;99.90;;;;;;5036182;28;20199;-79
2022/09/18 08:09:34;;;;;;;7.43;1.77;;;13.90;99.90;;;;;;5044025;28;20569;-78
2022/09/18 08:12:01;;;;;;;7.10;1.90;;;13.70;99.90;;;;;;5055583;28;20289;-78
2022/09/18 08:14:28;;;;;;;12.23;1.97;;;13.60;99.90;;;;;;5056293;28;20582;-77
2022/09/18 08:16:55;;;;;;;6.73;1.93;;;13.40;99.90;;;;;;5054400;28;20390;-78
2022/09/18 08:19:22;;;;;;;7.00;1.80;;;13.40;99.90;;;;;;5035793;28;20213;-78
2022/09/18 08:21:49;;;;;;;4.77;1.50;;;13.40;99.90;;;;;;5036001;28;20207;-78
2022/09/18 08:24:16;;;;;;;11.43;1.83;;;13.40;99.90;;;;;;5035688;28;20202;-77
2022/09/18 08:26:45;;;;;;;5.20;0.90;;;13.40;99.90;;;;;;5035664;28;20526;-77
2022/09/18 08:29:17;;;;;;;6.83;1.33;;;13.50;99.90;;;;;;5035766;28;20222;-78
2022/09/18 08:31:45;;;;;;;7.87;1.33;;;13.50;99.90;;;;;;5035350;28;20265;-78
2022/09/18 08:34:12;;;;;;;7.67;2.43;;;13.60;99.90;;;;;;5035896;28;20252;-79
2022/09/18 08:36:39;;;;;;;9.17;1.83;;;13.70;99.90;;;;;;5035829;28;20493;-78
2022/09/18 08:39:06;;;;;;;11.77;1.87;;;13.70;99.90;;;;;;5035306;28;20626;-77
2022/09/18 08:41:45;;;;;;;6.90;1.37;;;13.60;99.90;;;;;;5036129;28;20195;-78
2022/09/18 08:44:20;;;;;;;4.47;1.50;;;13.60;99.90;;;;;;5035471;28;20206;-78
2022/09/18 08:46:52;;;;;;;6.13;1.00;;;13.60;99.90;;;;;;5035661;28;20198;-78
2022/09/18 08:49:25;;;;;;;4.03;1.13;;;13.50;99.90;;;;;;5035558;28;20223;-78
2022/09/18 08:51:57;;;;;;;9.53;1.70;;;13.40;99.90;;;;;;5035281;28;20497;-78
2022/09/18 08:54:36;;;;;;;11.90;1.57;;;13.30;99.90;;;;;;5035749;28;20499;-78
2022/09/18 08:57:11;;;;;;;10.80;1.80;;;13.40;99.90;;;;;;5035385;28;20202;-77
2022/09/18 08:59:43;;;;;;;11.27;1.53;;;13.40;99.90;;;;;;5034547;28;20199;-78
2022/09/18 09:02:30;;;;;;;5.50;1.20;;;13.40;99.90;;;;;;5035252;28;20256;-78
2022/09/18 09:05:01;;;;;;;9.80;1.73;;;13.50;99.90;;;;;;5035097;28;20272;-77
2022/09/18 09:08:03;;;;;;;4.60;1.00;;;13.50;99.90;;;;;;5034048;28;20198;-77
2022/09/18 09:10:53;;;;;;;5.83;1.10;;;13.50;99.90;;;;;;5035365;28;20593;-78
2022/09/18 09:13:51;;;;;;;7.37;1.57;;;13.60;99.90;;;;;;5034223;28;20242;-78
2022/09/18 09:16:28;;;;;;;11.83;2.00;;;13.60;99.90;;;;;;5035070;28;20643;-78
2022/09/18 09:19:00;;;;;;;6.00;1.27;;;13.60;99.90;;;;;;5035108;28;20204;-78
2022/09/18 09:21:43;;;;;;;7.60;1.63;;;13.60;99.90;;;;;;5034349;28;20202;-77
2022/09/18 09:24:25;;;;;;;9.23;1.93;;;13.60;99.90;;;;;;5035204;28;20194;-77
2022/09/18 09:26:55;;;;;;;6.90;1.43;;;13.60;99.90;;;;;;5034840;28;20512;-77
2022/09/18 09:29:27;;;;;;;9.40;1.90;;;13.70;99.90;;;;;;5034141;28;20269;-77
2022/09/18 09:31:59;;;;;;;6.43;1.77;;;13.70;99.90;;;;;;5034659;28;20198;-77
2022/09/18 09:34:31;;;;;;;11.90;1.77;;;13.70;99.90;;;;;;5033860;28;20205;-77
2022/09/18 09:37:02;;;;;;;8.93;1.60;;;13.80;99.90;;;;;;5034688;28;20214;-78
2022/09/18 09:39:35;;;;;;;9.80;2.30;;;13.90;99.90;;;;;;5034718;28;20203;-78
2022/09/18 09:42:06;;;;;;;7.33;1.70;;;14.00;99.90;;;;;;5033737;28;20198;-77
2022/09/18 09:44:40;;;;;;;6.83;1.30;;;14.00;99.90;;;;;;5034410;28;20631;-77
2022/09/18 09:47:34;;;;;;;6.93;1.47;;;14.10;99.90;;;;;;5034485;28;20226;-78
2022/09/18 09:50:13;;;;;;;9.57;1.80;;;14.00;99.90;;;;;;5034217;28;20509;-78
2022/09/18 09:52:42;;;;;;;10.43;1.50;;;14.00;99.90;;;;;;5034491;28;20206;-79
2022/09/18 09:55:20;;;;;;;7.60;2.43;;;13.90;99.90;;;;;;5033948;28;20203;-77
2022/09/18 09:57:55;;;;;;;11.13;1.83;;;13.80;99.90;;;;;;5034566;28;20770;-78
2022/09/18 10:00:22;;;;;;;7.27;2.13;;;13.70;99.90;;;;;;5034558;28;20221;-78
2022/09/18 10:03:19;;;;;;;6.73;1.30;;;13.60;99.90;;;;;;5033375;28;20208;-78
2022/09/18 10:05:54;;;;;;;4.47;1.50;;;13.40;99.90;;;;;;5053858;28;20213;-78
2022/09/18 10:08:28;;;;;;;6.67;1.53;;;13.40;99.90;;;;;;5053984;28;20189;-78
2022/09/18 10:10:58;;;;;;;6.70;1.43;;;13.50;99.90;;;;;;5053280;28;20677;-78
2022/09/18 10:13:30;;;;;;;6.00;1.40;;;13.50;99.90;;;;;;5045410;28;20285;-78
2022/09/18 10:16:01;;;;;;;5.60;1.10;;;13.50;99.90;;;;;;5033964;28;20193;-78
2022/09/18 10:18:34;;;;;;;7.13;1.73;;;13.60;99.90;;;;;;5033286;28;20195;-78
2022/09/18 10:21:06;;;;;;;7.00;1.60;;;13.70;99.90;;;;;;5038461;28;20563;-78
2022/09/18 10:23:38;;;;;;;7.20;1.83;;;13.80;99.90;;;;;;5053294;28;20277;-78
2022/09/18 10:26:06;;;;;;;9.93;1.30;;;13.90;99.90;;;;;;5054046;28;20228;-77
2022/09/18 10:28:33;;;;;;;4.40;1.07;;;13.90;99.90;;;;;;5053493;28;20228;-77
2022/09/18 10:31:03;;;;;;;6.83;1.30;;;14.00;99.90;;;;;;5039380;28;20213;-77
2022/09/18 10:33:36;;;;;;;7.13;1.47;;;14.10;99.90;;;;;;5033548;28;20191;-78
2022/09/18 10:36:11;;;;;;;11.77;2.23;;;14.10;99.90;;;;;;5033799;28;20205;-78
2022/09/18 10:38:38;;;;;;;6.97;3.80;;;14.20;99.90;;;;;;5033043;28;20194;-77
2022/09/18 10:41:17;;;;;;;8.40;4.20;;;14.20;99.90;;;;;;5033209;28;20625;-77
2022/09/18 10:44:03;;;;;;;7.20;2.67;;;14.20;99.90;;;;;;5033434;28;20225;-77
2022/09/18 10:46:33;;;;;;;6.63;2.67;;;14.20;99.90;;;;;;5032836;28;20203;-76
2022/09/18 10:49:20;;;;;;;4.63;1.33;;;14.30;99.90;;;;;;5033604;28;20224;-77
2022/09/18 10:51:47;;;;;;;10.53;1.67;;;14.30;99.90;;;;;;5052539;28;20210;-78
2022/09/18 10:54:17;;;;;;;8.63;1.80;;;14.20;99.90;;;;;;5052878;28;20205;-77
2022/09/18 10:56:44;;;;;;;12.67;3.50;;;14.20;99.90;;;;;;5053590;28;20614;-78
2022/09/18 10:59:34;;;;;;;6.00;1.70;;;14.10;99.90;;;;;;5046285;28;20202;-77
2022/09/18 11:02:04;;;;;;;9.10;2.37;;;14.10;99.90;;;;;;5033003;28;20194;-76
2022/09/18 11:04:33;;;;;;;4.70;2.00;;;14.10;99.90;;;;;;5033587;28;20277;-77
2022/09/18 11:07:06;;;;;;;9.90;2.30;;;14.00;99.90;;;;;;5032428;28;20202;-76
2022/09/18 11:09:36;;;;;;;9.00;2.20;;;14.00;99.90;;;;;;5033079;28;20672;-77
2022/09/18 11:12:04;;;;;;;8.70;2.97;;;14.10;99.90;;;;;;5032641;28;20198;-77
2022/09/18 11:14:39;;;;;;;14.73;7.20;;;14.00;99.90;;;;;;5032555;28;20286;-79
2022/09/18 11:17:07;;;;;;;11.60;6.03;;;14.00;99.90;;;;;;5032838;28;20317;-76
2022/09/18 11:19:37;;;;;;;6.20;1.87;;;14.00;99.90;;;;;;5032257;28;20195;-77
2022/09/18 11:22:06;;;;;;;8.70;2.10;;;14.00;99.90;;;;;;5032914;28;20206;-78
2022/09/18 11:24:35;;;;;;;7.77;1.53;;;14.10;99.90;;;;;;5033018;28;20622;-77
2022/09/18 11:27:03;;;;;;;3.90;1.40;;;14.00;99.90;;;;;;5032060;28;20203;-78
2022/09/18 11:29:32;;;;;;;12.67;2.97;;;13.90;99.90;;;;;;5032733;28;20245;-78
2022/09/18 11:32:04;;;;;;;8.37;1.93;;;13.90;99.90;;;;;;5036679;28;20190;-78
2022/09/18 11:34:35;;;;;;;10.27;2.00;;;13.90;99.90;;;;;;5036114;28;20202;-78
2022/09/18 11:37:07;;;;;;;5.30;1.93;;;13.80;99.90;;;;;;5036550;28;20602;-78
2022/09/18 11:39:37;;;;;;;10.60;2.80;;;13.70;99.90;;;;;;5036615;28;20207;-78
2022/09/18 11:42:10;;;;;;;14.27;2.50;;;13.60;99.90;;;;;;5036434;28;20223;-79
2022/09/18 11:44:38;;;;;;;11.50;2.00;;;13.50;99.90;;;;;;5036498;28;20469;-77
2022/09/18 11:47:24;;;;;;;4.97;1.80;;;13.50;99.90;;;;;;5037176;28;20195;-78
2022/09/18 11:49:57;;;;;;;7.47;2.50;;;13.40;99.90;;;;;;5035673;28;20226;-78
2022/09/18 11:52:30;;;;;;;5.53;2.43;;;13.40;99.90;;;;;;5036140;28;20194;-79
2022/09/18 11:55:00;;;;;;;6.53;1.80;;;13.20;99.90;;;;;;5035982;28;20206;-79
2022/09/18 11:57:32;;;;;;;5.77;2.23;;;13.20;99.90;;;;;;5036485;28;20219;-79
2022/09/18 12:00:04;;;;;;;5.37;1.00;;;13.10;99.90;;;;;;5036345;28;20199;-79
2022/09/18 12:02:36;;;;;;;6.87;1.20;;;13.20;99.90;;;;;;5035940;28;20232;-78
2022/09/18 12:05:15;;;;;;;5.60;1.33;;;13.10;99.90;;;;;;5036455;28;20214;-78
2022/09/18 12:07:49;;;;;;;5.10;1.17;;;13.10;99.90;;;;;;5036436;28;20198;-79
2022/09/18 12:10:24;;;;;;;6.97;1.73;;;13.20;99.90;;;;;;5035804;28;20236;-78
2022/09/18 12:13:10;;;;;;;10.47;2.20;;;13.20;99.90;;;;;;5035879;28;20205;-78
2022/09/18 12:15:40;;;;;;;4.30;1.17;;;13.20;99.90;;;;;;5036307;28;20202;-79
2022/09/18 12:18:13;;;;;;;6.33;1.00;;;13.20;99.90;;;;;;5045538;28;20210;-79
2022/09/18 12:20:44;;;;;;;3.47;1.00;;;13.30;99.90;;;;;;5056295;28;20194;-77
2022/09/18 12:23:15;;;;;;;5.37;1.20;;;13.20;99.90;;;;;;5055476;28;20221;-78
2022/09/18 12:25:49;;;;;;;4.03;1.60;;;13.20;99.90;;;;;;5052028;28;20221;-77
2022/09/18 12:28:28;;;;;;;3.63;1.43;;;13.20;99.90;;;;;;5035687;28;20676;-77
2022/09/18 12:31:01;;;;;;;7.60;4.43;;;13.30;99.90;;;;;;5035364;28;20229;-77
2022/09/18 12:33:41;;;;;;;6.90;4.30;;;13.40;99.90;;;;;;5036077;28;20209;-78
2022/09/18 12:36:48;;;;;;;8.47;3.07;;;13.40;99.90;;;;;;5035317;28;20202;-77
2022/09/18 12:39:32;;;;;;;4.73;1.87;;;13.40;99.90;;;;;;5034991;28;20213;-77
2022/09/18 12:42:11;;;;;;;7.43;1.20;;;13.40;99.90;;;;;;5034474;28;20206;-77
2022/09/18 12:45:07;;;;;;;9.77;4.57;;;13.40;99.90;;;;;;5034562;28;20213;-77
2022/09/18 12:47:45;;;;;;;10.73;4.90;;;13.40;99.90;;;;;;5035694;28;20198;-78
2022/09/18 12:50:35;;;;;;;8.13;3.10;;;13.50;99.90;;;;;;5035708;28;20264;-77
2022/09/18 12:53:15;;;;;;;5.27;1.93;;;13.50;99.90;;;;;;5035056;28;20202;-77
2022/09/18 12:56:01;;;;;;;7.07;1.87;;;13.50;99.90;;;;;;5035434;28;20187;-77
2022/09/18 12:58:50;;;;;;;7.80;1.50;;;13.50;99.90;;;;;;5034894;28;20613;-77
2022/09/18 13:01:26;;;;;;;8.33;1.10;;;13.50;99.90;;;;;;5035294;28;20503;-78
2022/09/18 13:03:56;;;;;;;5.27;1.33;;;13.60;99.90;;;;;;5035112;28;20598;-77